sensor_id;sensor_type;location;lat;lon;timestamp;pressure;altitude;pressure_sealevel;temperature
64470;BMP280;50854;48.538;14.352;2022-07-29T00:00:55;93548.34;;;15.91
64470;BMP280;50854;48.538;14.352;2022-07-29T00:01:56;93550.75;;;15.87
64470;BMP280;50854;48.538;14.352;2022-07-29T00:02:56;93546.56;;;15.86
64470;BMP280;50854;48.538;14.352;2022-07-29T00:03:57;93553.69;;;15.81
64470;BMP280;50854;48.538;14.352;2022-07-29T00:04:57;93559.28;;;15.83
64470;BMP280;50854;48.538;14.352;2022-07-29T00:05:58;93556.31;;;15.89
64470;BMP280;50854;48.538;14.352;2022-07-29T00:06:58;93556.31;;;15.89
64470;BMP280;50854;48.538;14.352;2022-07-29T00:07:59;93553.78;;;15.91
64470;BMP280;50854;48.538;14.352;2022-07-29T00:08:59;93552.44;;;16.00
64470;BMP280;50854;48.538;14.352;2022-07-29T00:09:59;93546.91;;;16.07
64470;BMP280;50854;48.538;14.352;2022-07-29T00:11:00;93545.63;;;16.08
64470;BMP280;50854;48.538;14.352;2022-07-29T00:12:01;93545.97;;;16.12
64470;BMP280;50854;48.538;14.352;2022-07-29T00:13:02;93541.72;;;16.19
64470;BMP280;50854;48.538;14.352;2022-07-29T00:14:02;93543.13;;;16.20
64470;BMP280;50854;48.538;14.352;2022-07-29T00:15:04;93546.78;;;16.23
64470;BMP280;50854;48.538;14.352;2022-07-29T00:16:04;93550.22;;;16.23
64470;BMP280;50854;48.538;14.352;2022-07-29T00:17:05;93543.31;;;16.22
64470;BMP280;50854;48.538;14.352;2022-07-29T00:18:05;93551.09;;;16.26
64470;BMP280;50854;48.538;14.352;2022-07-29T00:19:06;93547.56;;;16.15
64470;BMP280;50854;48.538;14.352;2022-07-29T00:20:07;93551.41;;;15.95
64470;BMP280;50854;48.538;14.352;2022-07-29T00:21:08;93546.69;;;15.88
64470;BMP280;50854;48.538;14.352;2022-07-29T00:22:08;93546.13;;;15.47
64470;BMP280;50854;48.538;14.352;2022-07-29T00:23:09;93543.50;;;15.32
64470;BMP280;50854;48.538;14.352;2022-07-29T00:24:09;93551.47;;;15.38
64470;BMP280;50854;48.538;14.352;2022-07-29T00:25:11;93547.72;;;15.50
64470;BMP280;50854;48.538;14.352;2022-07-29T00:26:12;93554.00;;;15.61
64470;BMP280;50854;48.538;14.352;2022-07-29T00:27:13;93542.16;;;15.48
64470;BMP280;50854;48.538;14.352;2022-07-29T00:28:13;93544.56;;;15.37
64470;BMP280;50854;48.538;14.352;2022-07-29T00:29:13;93551.41;;;15.45
64470;BMP280;50854;48.538;14.352;2022-07-29T00:30:14;93551.00;;;15.49
64470;BMP280;50854;48.538;14.352;2022-07-29T00:31:14;93546.66;;;15.53
64470;BMP280;50854;48.538;14.352;2022-07-29T00:32:15;93549.50;;;15.55
64470;BMP280;50854;48.538;14.352;2022-07-29T00:33:15;93549.16;;;15.59
64470;BMP280;50854;48.538;14.352;2022-07-29T00:34:16;93542.06;;;15.56
64470;BMP280;50854;48.538;14.352;2022-07-29T00:35:35;93548.84;;;15.47
64470;BMP280;50854;48.538;14.352;2022-07-29T00:36:45;93551.72;;;15.49
64470;BMP280;50854;48.538;14.352;2022-07-29T00:37:45;93541.94;;;15.54
64470;BMP280;50854;48.538;14.352;2022-07-29T00:38:50;93544.44;;;15.60
64470;BMP280;50854;48.538;14.352;2022-07-29T00:39:50;93546.19;;;15.65
64470;BMP280;50854;48.538;14.352;2022-07-29T00:40:51;93544.13;;;15.73
64470;BMP280;50854;48.538;14.352;2022-07-29T00:41:51;93539.00;;;15.77
64470;BMP280;50854;48.538;14.352;2022-07-29T00:42:52;93535.19;;;15.80
64470;BMP280;50854;48.538;14.352;2022-07-29T00:43:53;93536.22;;;15.84
64470;BMP280;50854;48.538;14.352;2022-07-29T00:44:53;93540.53;;;15.87
64470;BMP280;50854;48.538;14.352;2022-07-29T00:45:53;93544.16;;;15.90
64470;BMP280;50854;48.538;14.352;2022-07-29T00:46:54;93534.75;;;15.83
64470;BMP280;50854;48.538;14.352;2022-07-29T00:47:54;93538.72;;;15.90
64470;BMP280;50854;48.538;14.352;2022-07-29T00:48:54;93539.03;;;15.94
64470;BMP280;50854;48.538;14.352;2022-07-29T00:49:55;93537.34;;;15.99
64470;BMP280;50854;48.538;14.352;2022-07-29T00:50:59;93534.09;;;16.00
64470;BMP280;50854;48.538;14.352;2022-07-29T00:52:03;93535.69;;;16.03
64470;BMP280;50854;48.538;14.352;2022-07-29T00:53:06;93532.00;;;16.08
64470;BMP280;50854;48.538;14.352;2022-07-29T00:54:07;93534.56;;;16.06
64470;BMP280;50854;48.538;14.352;2022-07-29T00:55:12;93534.25;;;16.02
64470;BMP280;50854;48.538;14.352;2022-07-29T00:56:13;93535.81;;;15.88
64470;BMP280;50854;48.538;14.352;2022-07-29T00:57:13;93531.38;;;15.58
64470;BMP280;50854;48.538;14.352;2022-07-29T00:58:13;93535.41;;;15.49
64470;BMP280;50854;48.538;14.352;2022-07-29T00:59:14;93536.13;;;15.50
64470;BMP280;50854;48.538;14.352;2022-07-29T01:00:20;93533.78;;;15.46
64470;BMP280;50854;48.538;14.352;2022-07-29T01:01:20;93526.94;;;15.63
64470;BMP280;50854;48.538;14.352;2022-07-29T01:02:21;93524.75;;;15.69
64470;BMP280;50854;48.538;14.352;2022-07-29T01:03:21;93535.94;;;15.73
64470;BMP280;50854;48.538;14.352;2022-07-29T01:04:22;93532.69;;;15.74
64470;BMP280;50854;48.538;14.352;2022-07-29T01:05:24;93531.00;;;15.79
64470;BMP280;50854;48.538;14.352;2022-07-29T01:06:26;93527.34;;;15.84
64470;BMP280;50854;48.538;14.352;2022-07-29T01:07:27;93524.78;;;15.86
64470;BMP280;50854;48.538;14.352;2022-07-29T01:08:28;93527.63;;;15.88
64470;BMP280;50854;48.538;14.352;2022-07-29T01:09:31;93524.91;;;15.88
64470;BMP280;50854;48.538;14.352;2022-07-29T01:10:32;93530.22;;;15.86
64470;BMP280;50854;48.538;14.352;2022-07-29T01:11:33;93526.06;;;15.85
64470;BMP280;50854;48.538;14.352;2022-07-29T01:12:35;93534.63;;;15.81
64470;BMP280;50854;48.538;14.352;2022-07-29T01:13:37;93534.63;;;15.81
64470;BMP280;50854;48.538;14.352;2022-07-29T01:14:37;93535.19;;;15.80
64470;BMP280;50854;48.538;14.352;2022-07-29T01:15:41;93540.97;;;15.84
64470;BMP280;50854;48.538;14.352;2022-07-29T01:16:52;93536.94;;;15.85
64470;BMP280;50854;48.538;14.352;2022-07-29T01:18:08;93541.25;;;15.88
64470;BMP280;50854;48.538;14.352;2022-07-29T01:21:54;93540.06;;;15.56
64470;BMP280;50854;48.538;14.352;2022-07-29T01:23:15;93546.28;;;15.49
64470;BMP280;50854;48.538;14.352;2022-07-29T01:24:39;93545.19;;;15.52
64470;BMP280;50854;48.538;14.352;2022-07-29T01:28:49;93553.28;;;15.60
64470;BMP280;50854;48.538;14.352;2022-07-29T01:29:55;93545.84;;;15.61
64470;BMP280;50854;48.538;14.352;2022-07-29T01:30:56;93548.50;;;15.68
64470;BMP280;50854;48.538;14.352;2022-07-29T01:32:02;93554.72;;;15.69
64470;BMP280;50854;48.538;14.352;2022-07-29T01:33:07;93550.84;;;15.72
64470;BMP280;50854;48.538;14.352;2022-07-29T01:34:15;93555.72;;;15.73
64470;BMP280;50854;48.538;14.352;2022-07-29T01:35:26;93561.50;;;15.77
64470;BMP280;50854;48.538;14.352;2022-07-29T01:36:36;93560.41;;;15.80
64470;BMP280;50854;48.538;14.352;2022-07-29T01:39:08;93556.50;;;15.91
64470;BMP280;50854;48.538;14.352;2022-07-29T01:40:23;93561.56;;;15.95
64470;BMP280;50854;48.538;14.352;2022-07-29T01:41:26;93559.38;;;15.93
64470;BMP280;50854;48.538;14.352;2022-07-29T01:43:53;93556.03;;;15.85
64470;BMP280;50854;48.538;14.352;2022-07-29T01:46:21;93556.69;;;15.68
64470;BMP280;50854;48.538;14.352;2022-07-29T01:47:30;93550.47;;;15.75
64470;BMP280;50854;48.538;14.352;2022-07-29T01:48:37;93561.28;;;15.83
64470;BMP280;50854;48.538;14.352;2022-07-29T01:49:43;93563.06;;;15.88
64470;BMP280;50854;48.538;14.352;2022-07-29T01:50:58;93561.97;;;15.91
64470;BMP280;50854;48.538;14.352;2022-07-29T01:52:08;93563.91;;;15.98
64470;BMP280;50854;48.538;14.352;2022-07-29T01:53:12;93559.00;;;15.97
64470;BMP280;50854;48.538;14.352;2022-07-29T01:54:23;93561.75;;;15.97
64470;BMP280;50854;48.538;14.352;2022-07-29T01:55:29;93561.50;;;16.02
64470;BMP280;50854;48.538;14.352;2022-07-29T01:56:31;93560.19;;;15.86
64470;BMP280;50854;48.538;14.352;2022-07-29T01:57:34;93557.31;;;15.84
64470;BMP280;50854;48.538;14.352;2022-07-29T01:58:38;93559.38;;;15.76
64470;BMP280;50854;48.538;14.352;2022-07-29T01:59:41;93553.31;;;15.85
64470;BMP280;50854;48.538;14.352;2022-07-29T02:00:44;93546.19;;;15.90
64470;BMP280;50854;48.538;14.352;2022-07-29T02:01:46;93548.09;;;15.97
64470;BMP280;50854;48.538;14.352;2022-07-29T02:02:48;93557.88;;;16.00
64470;BMP280;50854;48.538;14.352;2022-07-29T02:03:50;93552.03;;;16.03
64470;BMP280;50854;48.538;14.352;2022-07-29T02:04:52;93545.88;;;16.03
64470;BMP280;50854;48.538;14.352;2022-07-29T02:05:54;93548.00;;;16.04
64470;BMP280;50854;48.538;14.352;2022-07-29T02:07:01;93550.88;;;15.89
64470;BMP280;50854;48.538;14.352;2022-07-29T02:08:04;93551.53;;;15.80
64470;BMP280;50854;48.538;14.352;2022-07-29T02:09:06;93551.19;;;15.76
64470;BMP280;50854;48.538;14.352;2022-07-29T02:10:10;93551.09;;;15.83
64470;BMP280;50854;48.538;14.352;2022-07-29T02:11:11;93551.06;;;15.91
64470;BMP280;50854;48.538;14.352;2022-07-29T02:12:14;93555.22;;;15.92
64470;BMP280;50854;48.538;14.352;2022-07-29T02:13:17;93554.25;;;15.80
64470;BMP280;50854;48.538;14.352;2022-07-29T02:14:20;93550.09;;;15.54
64470;BMP280;50854;48.538;14.352;2022-07-29T02:15:23;93549.72;;;15.50
64470;BMP280;50854;48.538;14.352;2022-07-29T02:16:26;93556.06;;;15.52
64470;BMP280;50854;48.538;14.352;2022-07-29T02:17:35;93550.50;;;15.68
64470;BMP280;50854;48.538;14.352;2022-07-29T02:18:41;93547.56;;;15.73
64470;BMP280;50854;48.538;14.352;2022-07-29T02:19:44;93554.25;;;15.80
64470;BMP280;50854;48.538;14.352;2022-07-29T02:20:49;93550.38;;;15.83
64470;BMP280;50854;48.538;14.352;2022-07-29T02:21:51;93552.50;;;15.92
64470;BMP280;50854;48.538;14.352;2022-07-29T02:22:55;93550.97;;;15.99
64470;BMP280;50854;48.538;14.352;2022-07-29T02:23:59;93543.38;;;15.97
64470;BMP280;50854;48.538;14.352;2022-07-29T02:25:01;93547.72;;;16.00
64470;BMP280;50854;48.538;14.352;2022-07-29T02:26:01;93548.59;;;16.03
64470;BMP280;50854;48.538;14.352;2022-07-29T02:27:03;93541.63;;;15.92
64470;BMP280;50854;48.538;14.352;2022-07-29T02:28:05;93538.50;;;15.96
64470;BMP280;50854;48.538;14.352;2022-07-29T02:29:08;93542.84;;;15.74
64470;BMP280;50854;48.538;14.352;2022-07-29T02:30:09;93536.63;;;15.81
64470;BMP280;50854;48.538;14.352;2022-07-29T02:31:13;93535.91;;;15.80
64470;BMP280;50854;48.538;14.352;2022-07-29T02:32:15;93528.44;;;15.81
64470;BMP280;50854;48.538;14.352;2022-07-29T02:33:17;93530.81;;;15.77
64470;BMP280;50854;48.538;14.352;2022-07-29T02:34:19;93529.88;;;15.82
64470;BMP280;50854;48.538;14.352;2022-07-29T02:35:21;93528.44;;;15.81
64470;BMP280;50854;48.538;14.352;2022-07-29T02:36:23;93526.06;;;15.85
64470;BMP280;50854;48.538;14.352;2022-07-29T02:37:25;93518.19;;;15.89
64470;BMP280;50854;48.538;14.352;2022-07-29T02:38:27;93514.19;;;15.90
64470;BMP280;50854;48.538;14.352;2022-07-29T02:39:48;93514.00;;;15.88
64470;BMP280;50854;48.538;14.352;2022-07-29T02:40:50;93520.38;;;15.91
64470;BMP280;50854;48.538;14.352;2022-07-29T02:41:55;93518.38;;;15.91
64470;BMP280;50854;48.538;14.352;2022-07-29T02:42:57;93514.97;;;15.83
64470;BMP280;50854;48.538;14.352;2022-07-29T02:44:05;93518.63;;;15.78
64470;BMP280;50854;48.538;14.352;2022-07-29T02:45:06;93516.34;;;15.74
64470;BMP280;50854;48.538;14.352;2022-07-29T02:46:11;93518.09;;;15.79
64470;BMP280;50854;48.538;14.352;2022-07-29T02:47:27;93523.56;;;15.79
64470;BMP280;50854;48.538;14.352;2022-07-29T02:48:41;93522.84;;;15.79
64470;BMP280;50854;48.538;14.352;2022-07-29T02:49:48;93525.00;;;15.80
64470;BMP280;50854;48.538;14.352;2022-07-29T02:50:58;93523.13;;;15.83
64470;BMP280;50854;48.538;14.352;2022-07-29T02:52:04;93528.22;;;15.86
64470;BMP280;50854;48.538;14.352;2022-07-29T02:53:14;93533.44;;;15.92
64470;BMP280;50854;48.538;14.352;2022-07-29T02:54:33;93528.13;;;15.94
64470;BMP280;50854;48.538;14.352;2022-07-29T02:55:53;93530.63;;;16.00
64470;BMP280;50854;48.538;14.352;2022-07-29T02:56:58;93533.31;;;15.82
64470;BMP280;50854;48.538;14.352;2022-07-29T02:59:17;93531.91;;;15.81
64470;BMP280;50854;48.538;14.352;2022-07-29T03:00:28;93529.16;;;15.81
64470;BMP280;50854;48.538;14.352;2022-07-29T03:01:31;93525.31;;;15.84
64470;BMP280;50854;48.538;14.352;2022-07-29T03:02:35;93522.19;;;15.88
64470;BMP280;50854;48.538;14.352;2022-07-29T03:03:37;93533.09;;;15.88
64470;BMP280;50854;48.538;14.352;2022-07-29T03:04:41;93530.34;;;15.88
64470;BMP280;50854;48.538;14.352;2022-07-29T03:05:42;93526.91;;;15.87
64470;BMP280;50854;48.538;14.352;2022-07-29T03:06:43;93532.44;;;15.80
64470;BMP280;50854;48.538;14.352;2022-07-29T03:07:47;93530.44;;;15.80
64470;BMP280;50854;48.538;14.352;2022-07-29T03:08:50;93528.69;;;15.75
64470;BMP280;50854;48.538;14.352;2022-07-29T03:09:51;93530.91;;;15.69
64470;BMP280;50854;48.538;14.352;2022-07-29T03:10:52;93540.66;;;15.72
64470;BMP280;50854;48.538;14.352;2022-07-29T03:11:54;93535.22;;;15.72
64470;BMP280;50854;48.538;14.352;2022-07-29T03:12:56;93526.09;;;15.77
64470;BMP280;50854;48.538;14.352;2022-07-29T03:13:57;93526.69;;;15.76
64470;BMP280;50854;48.538;14.352;2022-07-29T03:14:58;93530.09;;;15.76
64470;BMP280;50854;48.538;14.352;2022-07-29T03:15:59;93531.97;;;15.74
64470;BMP280;50854;48.538;14.352;2022-07-29T03:17:00;93530.50;;;15.73
64470;BMP280;50854;48.538;14.352;2022-07-29T03:18:01;93528.69;;;15.75
64470;BMP280;50854;48.538;14.352;2022-07-29T03:19:03;93521.06;;;15.74
64470;BMP280;50854;48.538;14.352;2022-07-29T03:20:05;93532.25;;;15.78
64470;BMP280;50854;48.538;14.352;2022-07-29T03:21:07;93525.22;;;15.75
64470;BMP280;50854;48.538;14.352;2022-07-29T03:22:08;93527.22;;;15.74
64470;BMP280;50854;48.538;14.352;2022-07-29T03:23:09;93532.13;;;15.76
64470;BMP280;50854;48.538;14.352;2022-07-29T03:24:09;93521.56;;;15.80
64470;BMP280;50854;48.538;14.352;2022-07-29T03:25:11;93516.38;;;15.67
64470;BMP280;50854;48.538;14.352;2022-07-29T03:26:12;93517.44;;;15.71
64470;BMP280;50854;48.538;14.352;2022-07-29T03:27:13;93515.09;;;15.68
64470;BMP280;50854;48.538;14.352;2022-07-29T03:28:13;93519.69;;;15.65
64470;BMP280;50854;48.538;14.352;2022-07-29T03:29:13;93516.94;;;15.40
64470;BMP280;50854;48.538;14.352;2022-07-29T03:30:14;93511.97;;;14.97
64470;BMP280;50854;48.538;14.352;2022-07-29T03:31:15;93507.28;;;15.22
64470;BMP280;50854;48.538;14.352;2022-07-29T03:32:16;93510.63;;;15.05
64470;BMP280;50854;48.538;14.352;2022-07-29T03:33:17;93508.75;;;15.15
64470;BMP280;50854;48.538;14.352;2022-07-29T03:34:17;93511.44;;;15.23
64470;BMP280;50854;48.538;14.352;2022-07-29T03:35:21;93509.22;;;15.29
64470;BMP280;50854;48.538;14.352;2022-07-29T03:36:22;93508.84;;;15.33
64470;BMP280;50854;48.538;14.352;2022-07-29T03:37:23;93511.13;;;15.44
64470;BMP280;50854;48.538;14.352;2022-07-29T03:38:25;93513.28;;;15.45
64470;BMP280;50854;48.538;14.352;2022-07-29T03:39:29;93512.72;;;15.47
64470;BMP280;50854;48.538;14.352;2022-07-29T03:40:49;93504.38;;;15.45
64470;BMP280;50854;48.538;14.352;2022-07-29T03:41:54;93512.19;;;15.48
64470;BMP280;50854;48.538;14.352;2022-07-29T03:42:56;93508.28;;;15.34
64470;BMP280;50854;48.538;14.352;2022-07-29T03:43:58;93513.66;;;15.42
64470;BMP280;50854;48.538;14.352;2022-07-29T03:45:06;93515.28;;;15.45
64470;BMP280;50854;48.538;14.352;2022-07-29T03:46:09;93516.50;;;15.51
64470;BMP280;50854;48.538;14.352;2022-07-29T03:47:11;93515.75;;;15.59
64470;BMP280;50854;48.538;14.352;2022-07-29T03:48:16;93521.69;;;15.65
64470;BMP280;50854;48.538;14.352;2022-07-29T03:49:18;93515.66;;;15.66
64470;BMP280;50854;48.538;14.352;2022-07-29T03:50:21;93525.13;;;15.65
64470;BMP280;50854;48.538;14.352;2022-07-29T03:51:21;93521.06;;;15.49
64470;BMP280;50854;48.538;14.352;2022-07-29T03:52:22;93517.19;;;15.60
64470;BMP280;50854;48.538;14.352;2022-07-29T03:53:23;93524.41;;;15.65
64470;BMP280;50854;48.538;14.352;2022-07-29T03:54:23;93524.53;;;15.67
64470;BMP280;50854;48.538;14.352;2022-07-29T03:55:25;93516.25;;;15.65
64470;BMP280;50854;48.538;14.352;2022-07-29T03:56:27;93510.00;;;15.47
64470;BMP280;50854;48.538;14.352;2022-07-29T03:57:30;93514.66;;;15.29
64470;BMP280;50854;48.538;14.352;2022-07-29T03:58:31;93517.72;;;15.33
64470;BMP280;50854;48.538;14.352;2022-07-29T03:59:33;93516.94;;;15.40
64470;BMP280;50854;48.538;14.352;2022-07-29T04:00:38;93513.84;;;15.44
64470;BMP280;50854;48.538;14.352;2022-07-29T04:01:39;93522.63;;;15.60
64470;BMP280;50854;48.538;14.352;2022-07-29T04:02:40;93523.03;;;15.73
64470;BMP280;50854;48.538;14.352;2022-07-29T04:03:45;93525.22;;;15.75
64470;BMP280;50854;48.538;14.352;2022-07-29T04:04:46;93521.91;;;15.76
64470;BMP280;50854;48.538;14.352;2022-07-29T04:06:00;93524.53;;;15.92
64470;BMP280;50854;48.538;14.352;2022-07-29T04:07:02;93522.75;;;16.04
64470;BMP280;50854;48.538;14.352;2022-07-29T04:08:02;93525.34;;;16.19
64470;BMP280;50854;48.538;14.352;2022-07-29T04:09:02;93523.44;;;16.29
64470;BMP280;50854;48.538;14.352;2022-07-29T04:10:03;93532.41;;;16.39
64470;BMP280;50854;48.538;14.352;2022-07-29T04:11:04;93522.38;;;16.42
64470;BMP280;50854;48.538;14.352;2022-07-29T04:12:05;93526.00;;;16.44
64470;BMP280;50854;48.538;14.352;2022-07-29T04:13:05;93529.38;;;16.35
64470;BMP280;50854;48.538;14.352;2022-07-29T04:14:06;93525.91;;;16.35
64470;BMP280;50854;48.538;14.352;2022-07-29T04:15:07;93534.34;;;16.29
64470;BMP280;50854;48.538;14.352;2022-07-29T04:16:09;93532.00;;;16.26
64470;BMP280;50854;48.538;14.352;2022-07-29T04:17:09;93538.28;;;16.36
64470;BMP280;50854;48.538;14.352;2022-07-29T04:18:09;93533.78;;;16.13
64470;BMP280;50854;48.538;14.352;2022-07-29T04:19:10;93532.19;;;16.28
64470;BMP280;50854;48.538;14.352;2022-07-29T04:20:10;93529.53;;;16.37
64470;BMP280;50854;48.538;14.352;2022-07-29T04:21:13;93526.88;;;16.47
64470;BMP280;50854;48.538;14.352;2022-07-29T04:22:13;93526.06;;;16.54
64470;BMP280;50854;48.538;14.352;2022-07-29T04:23:14;93528.53;;;16.60
64470;BMP280;50854;48.538;14.352;2022-07-29T04:24:14;93526.72;;;16.62
64470;BMP280;50854;48.538;14.352;2022-07-29T04:25:15;93524.00;;;16.62
64470;BMP280;50854;48.538;14.352;2022-07-29T04:26:19;93526.22;;;16.56
64470;BMP280;50854;48.538;14.352;2022-07-29T04:27:19;93534.16;;;16.62
64470;BMP280;50854;48.538;14.352;2022-07-29T04:28:20;93531.22;;;16.67
64470;BMP280;50854;48.538;14.352;2022-07-29T04:29:20;93529.19;;;16.68
64470;BMP280;50854;48.538;14.352;2022-07-29T04:30:21;93532.19;;;16.62
64470;BMP280;50854;48.538;14.352;2022-07-29T04:31:21;93526.53;;;16.60
64470;BMP280;50854;48.538;14.352;2022-07-29T04:32:21;93528.06;;;16.53
64470;BMP280;50854;48.538;14.352;2022-07-29T04:33:22;93523.41;;;16.64
64470;BMP280;50854;48.538;14.352;2022-07-29T04:34:22;93523.81;;;16.60
64470;BMP280;50854;48.538;14.352;2022-07-29T04:35:23;93524.63;;;16.53
64470;BMP280;50854;48.538;14.352;2022-07-29T04:36:23;93526.22;;;16.56
64470;BMP280;50854;48.538;14.352;2022-07-29T04:37:24;93528.94;;;16.56
64470;BMP280;50854;48.538;14.352;2022-07-29T04:38:24;93524.78;;;16.55
64470;BMP280;50854;48.538;14.352;2022-07-29T04:39:24;93527.72;;;16.67
64470;BMP280;50854;48.538;14.352;2022-07-29T04:40:25;93528.28;;;16.65
64470;BMP280;50854;48.538;14.352;2022-07-29T04:41:26;93528.59;;;16.69
64470;BMP280;50854;48.538;14.352;2022-07-29T04:42:27;93526.38;;;16.58
64470;BMP280;50854;48.538;14.352;2022-07-29T04:43:27;93524.06;;;16.37
64470;BMP280;50854;48.538;14.352;2022-07-29T04:44:28;93537.00;;;16.37
64470;BMP280;50854;48.538;14.352;2022-07-29T04:45:28;93523.25;;;16.44
64470;BMP280;50854;48.538;14.352;2022-07-29T04:46:29;93529.13;;;16.41
64470;BMP280;50854;48.538;14.352;2022-07-29T04:47:29;93529.59;;;16.47
64470;BMP280;50854;48.538;14.352;2022-07-29T04:48:30;93529.75;;;16.49
64470;BMP280;50854;48.538;14.352;2022-07-29T04:49:30;93525.84;;;16.42
64470;BMP280;50854;48.538;14.352;2022-07-29T04:50:30;93543.31;;;16.39
64470;BMP280;50854;48.538;14.352;2022-07-29T04:51:31;93535.13;;;16.57
64470;BMP280;50854;48.538;14.352;2022-07-29T04:52:32;93539.06;;;16.63
64470;BMP280;50854;48.538;14.352;2022-07-29T04:53:32;93545.09;;;16.89
64470;BMP280;50854;48.538;14.352;2022-07-29T04:54:33;93546.00;;;17.18
64470;BMP280;50854;48.538;14.352;2022-07-29T04:55:33;93541.22;;;17.45
64470;BMP280;50854;48.538;14.352;2022-07-29T04:56:34;93545.00;;;17.60
64470;BMP280;50854;48.538;14.352;2022-07-29T04:57:34;93545.34;;;17.83
64470;BMP280;50854;48.538;14.352;2022-07-29T04:58:35;93554.44;;;17.86
64470;BMP280;50854;48.538;14.352;2022-07-29T04:59:36;93553.13;;;17.87
64470;BMP280;50854;48.538;14.352;2022-07-29T05:00:36;93546.53;;;17.90
64470;BMP280;50854;48.538;14.352;2022-07-29T05:01:37;93555.44;;;17.90
64470;BMP280;50854;48.538;14.352;2022-07-29T05:02:37;93549.22;;;17.80
64470;BMP280;50854;48.538;14.352;2022-07-29T05:03:37;93553.25;;;17.79
64470;BMP280;50854;48.538;14.352;2022-07-29T05:04:38;93552.25;;;17.84
64470;BMP280;50854;48.538;14.352;2022-07-29T05:05:38;93556.63;;;17.87
64470;BMP280;50854;48.538;14.352;2022-07-29T05:06:39;93554.31;;;17.93
64470;BMP280;50854;48.538;14.352;2022-07-29T05:07:40;93552.97;;;17.84
64470;BMP280;50854;48.538;14.352;2022-07-29T05:08:40;93556.44;;;17.85
64470;BMP280;50854;48.538;14.352;2022-07-29T05:09:41;93556.72;;;17.79
64470;BMP280;50854;48.538;14.352;2022-07-29T05:10:41;93557.34;;;17.88
64470;BMP280;50854;48.538;14.352;2022-07-29T05:11:41;93558.03;;;17.88
64470;BMP280;50854;48.538;14.352;2022-07-29T05:12:42;93557.44;;;17.80
64470;BMP280;50854;48.538;14.352;2022-07-29T05:13:42;93560.84;;;17.71
64470;BMP280;50854;48.538;14.352;2022-07-29T05:14:43;93562.03;;;17.68
64470;BMP280;50854;48.538;14.352;2022-07-29T05:15:43;93561.69;;;17.64
64470;BMP280;50854;48.538;14.352;2022-07-29T05:16:43;93567.38;;;17.48
64470;BMP280;50854;48.538;14.352;2022-07-29T05:17:44;93562.63;;;17.49
64470;BMP280;50854;48.538;14.352;2022-07-29T05:18:44;93563.38;;;17.49
64470;BMP280;50854;48.538;14.352;2022-07-29T05:19:45;93569.13;;;17.54
64470;BMP280;50854;48.538;14.352;2022-07-29T05:20:45;93563.25;;;17.47
64470;BMP280;50854;48.538;14.352;2022-07-29T05:21:46;93567.00;;;17.52
64470;BMP280;50854;48.538;14.352;2022-07-29T05:22:46;93567.13;;;17.54
64470;BMP280;50854;48.538;14.352;2022-07-29T05:23:46;93561.53;;;17.52
64470;BMP280;50854;48.538;14.352;2022-07-29T05:24:47;93560.19;;;17.43
64470;BMP280;50854;48.538;14.352;2022-07-29T05:25:47;93562.59;;;17.39
64470;BMP280;50854;48.538;14.352;2022-07-29T05:26:48;93565.66;;;17.43
64470;BMP280;50854;48.538;14.352;2022-07-29T05:27:48;93563.09;;;17.45
64470;BMP280;50854;48.538;14.352;2022-07-29T05:28:49;93565.66;;;17.43
64470;BMP280;50854;48.538;14.352;2022-07-29T05:29:49;93559.03;;;17.37
64470;BMP280;50854;48.538;14.352;2022-07-29T05:30:50;93559.88;;;17.39
64470;BMP280;50854;48.538;14.352;2022-07-29T05:31:50;93562.16;;;17.33
64470;BMP280;50854;48.538;14.352;2022-07-29T05:32:52;93567.22;;;17.37
64470;BMP280;50854;48.538;14.352;2022-07-29T05:33:53;93569.94;;;17.37
64470;BMP280;50854;48.538;14.352;2022-07-29T05:34:53;93575.97;;;17.35
64470;BMP280;50854;48.538;14.352;2022-07-29T05:35:54;93563.63;;;17.44
64470;BMP280;50854;48.538;14.352;2022-07-29T05:36:54;93561.78;;;17.46
64470;BMP280;50854;48.538;14.352;2022-07-29T05:37:54;93561.91;;;17.48
64470;BMP280;50854;48.538;14.352;2022-07-29T05:38:55;93555.34;;;17.52
64470;BMP280;50854;48.538;14.352;2022-07-29T05:39:55;93560.63;;;17.49
64470;BMP280;50854;48.538;14.352;2022-07-29T05:40:57;93559.06;;;17.46
64470;BMP280;50854;48.538;14.352;2022-07-29T05:41:58;93560.78;;;17.42
64470;BMP280;50854;48.538;14.352;2022-07-29T05:42:58;93567.25;;;17.46
64470;BMP280;50854;48.538;14.352;2022-07-29T05:43:59;93567.06;;;17.44
64470;BMP280;50854;48.538;14.352;2022-07-29T05:45:00;93564.53;;;17.46
64470;BMP280;50854;48.538;14.352;2022-07-29T05:46:01;93573.19;;;17.53
64470;BMP280;50854;48.538;14.352;2022-07-29T05:47:01;93564.38;;;17.54
64470;BMP280;50854;48.538;14.352;2022-07-29T05:48:01;93562.81;;;17.51
64470;BMP280;50854;48.538;14.352;2022-07-29T05:49:02;93563.25;;;17.47
64470;BMP280;50854;48.538;14.352;2022-07-29T05:50:03;93560.50;;;17.47
64470;BMP280;50854;48.538;14.352;2022-07-29T05:51:04;93567.38;;;17.48
64470;BMP280;50854;48.538;14.352;2022-07-29T05:52:05;93551.31;;;17.53
64470;BMP280;50854;48.538;14.352;2022-07-29T05:53:05;93567.28;;;17.56
64470;BMP280;50854;48.538;14.352;2022-07-29T05:54:06;93565.41;;;17.59
64470;BMP280;50854;48.538;14.352;2022-07-29T05:55:06;93561.38;;;17.60
64470;BMP280;50854;48.538;14.352;2022-07-29T05:56:07;93558.53;;;17.58
64470;BMP280;50854;48.538;14.352;2022-07-29T05:57:07;93558.66;;;17.60
64470;BMP280;50854;48.538;14.352;2022-07-29T05:58:08;93559.94;;;17.59
64470;BMP280;50854;48.538;14.352;2022-07-29T05:59:09;93563.13;;;17.65
64470;BMP280;50854;48.538;14.352;2022-07-29T06:00:10;93565.59;;;17.70
64470;BMP280;50854;48.538;14.352;2022-07-29T06:01:10;93567.53;;;17.77
64470;BMP280;50854;48.538;14.352;2022-07-29T06:02:11;93575.56;;;17.85
64470;BMP280;50854;48.538;14.352;2022-07-29T06:03:11;93567.38;;;17.85
64470;BMP280;50854;48.538;14.352;2022-07-29T06:04:12;93575.00;;;17.87
64470;BMP280;50854;48.538;14.352;2022-07-29T06:05:12;93566.22;;;17.88
64470;BMP280;50854;48.538;14.352;2022-07-29T06:06:14;93572.03;;;17.92